createdAt,value
2022-12-11T00:01:18.059Z,100044.16
2022-12-11T00:03:44.689Z,100040.22
2022-12-11T00:06:14.811Z,100043.69
2022-12-11T00:08:41.879Z,100040.28
2022-12-11T00:11:09.933Z,100049.13
2022-12-11T00:13:36.401Z,100044.91
2022-12-11T00:16:03.206Z,100050.19
2022-12-11T00:18:30.019Z,100042.88
2022-12-11T00:21:01.413Z,100028.84
2022-12-11T00:23:28.835Z,100037.50
2022-12-11T00:25:55.418Z,100044.84
2022-12-11T00:28:22.337Z,100039.13
2022-12-11T00:30:49.275Z,100048.78
2022-12-11T00:33:16.152Z,100041.28
2022-12-11T00:35:45.216Z,100054.44
2022-12-11T00:38:20.204Z,100040.91
2022-12-11T00:40:47.151Z,100047.78
2022-12-11T00:43:14.911Z,100041.09
2022-12-11T00:45:46.034Z,100024.41
2022-12-11T00:48:13.294Z,100041.03
2022-12-11T00:50:40.121Z,100045.53
2022-12-11T00:53:07.091Z,100040.69
2022-12-11T00:55:40.155Z,100044.97
2022-12-11T00:58:07.104Z,100042.22
2022-12-11T01:00:34.051Z,100042.38
2022-12-11T01:03:00.960Z,100044.06
2022-12-11T01:05:27.866Z,100045.13
2022-12-11T01:07:54.494Z,100043.94
2022-12-11T01:10:24.189Z,100043.44
2022-12-11T01:12:59.127Z,100049.03
2022-12-11T01:15:31.354Z,100044.47
2022-12-11T01:17:59.206Z,100041.13
2022-12-11T01:20:28.011Z,100040.56
2022-12-11T01:22:56.859Z,100058.19
2022-12-11T01:25:23.581Z,100046.09
2022-12-11T01:27:54.697Z,100048.13
2022-12-11T01:30:23.168Z,100036.22
2022-12-11T01:32:49.897Z,100037.38
2022-12-11T01:35:17.377Z,100035.81
2022-12-11T01:37:44.007Z,100030.69
2022-12-11T01:40:14.044Z,100033.75
2022-12-11T01:42:40.560Z,100039.41
2022-12-11T01:45:23.823Z,100044.47
2022-12-11T01:47:57.125Z,100038.38
2022-12-11T01:50:24.647Z,100027.41
2022-12-11T01:52:52.093Z,100030.09
2022-12-11T01:55:19.535Z,100043.28
2022-12-11T01:57:49.501Z,100054.28
2022-12-11T02:00:16.472Z,100046.59
2022-12-11T02:02:43.104Z,100050.50
2022-12-11T02:05:09.912Z,100048.72
2022-12-11T02:07:40.921Z,100045.41
2022-12-11T02:10:08.890Z,100037.72
2022-12-11T02:12:57.907Z,100041.28
2022-12-11T02:15:32.799Z,100041.41
2022-12-11T02:18:30.276Z,100032.22
2022-12-11T02:21:05.973Z,100017.38
2022-12-11T02:23:46.988Z,100039.78
2022-12-11T02:26:19.331Z,100038.16
2022-12-11T02:28:57.333Z,100042.09
2022-12-11T02:31:41.568Z,100038.66
2022-12-11T02:34:22.671Z,100042.19
2022-12-11T02:36:54.403Z,100032.22
2022-12-11T02:39:23.457Z,100041.53
2022-12-11T02:41:51.379Z,100046.94
2022-12-11T02:44:22.550Z,100060.03
2022-12-11T02:46:49.425Z,100060.84
2022-12-11T02:49:16.860Z,100062.81
2022-12-11T02:51:44.260Z,100065.16
2022-12-11T02:54:16.123Z,100046.19
2022-12-11T02:56:51.086Z,100060.72
2022-12-11T02:59:23.714Z,100057.66
2022-12-11T03:01:50.608Z,100053.72
2022-12-11T03:04:17.395Z,100052.88
2022-12-11T03:06:49.357Z,100047.53
2022-12-11T03:09:15.817Z,100031.09
2022-12-11T03:11:42.319Z,100054.91
2022-12-11T03:14:09.293Z,100051.88
2022-12-11T03:16:39.541Z,100056.94
2022-12-11T03:19:31.855Z,100057.19
2022-12-11T03:22:22.564Z,100053.75
2022-12-11T03:25:00.509Z,100048.34
2022-12-11T03:27:36.525Z,100051.47
2022-12-11T03:30:11.483Z,100044.88
2022-12-11T03:32:49.184Z,100047.53
2022-12-11T03:35:37.163Z,100043.66
2022-12-11T03:38:08.464Z,100044.28
2022-12-11T03:40:36.900Z,100049.44
2022-12-11T03:43:05.055Z,100046.03
2022-12-11T03:45:33.359Z,100041.19
2022-12-11T03:48:02.527Z,100046.19
2022-12-11T03:50:32.027Z,100036.44
2022-12-11T03:53:00.435Z,100030.44
2022-12-11T03:55:29.438Z,100042.03
2022-12-11T03:57:56.208Z,100041.38
2022-12-11T04:00:23.311Z,100050.44
2022-12-11T04:03:13.553Z,100045.44
2022-12-11T04:05:43.682Z,100039.44
2022-12-11T04:08:10.617Z,100052.47
2022-12-11T04:10:37.283Z,100039.53
2022-12-11T04:13:03.825Z,100039.13
2022-12-11T04:15:30.495Z,100043.16
2022-12-11T04:18:15.735Z,100047.34
2022-12-11T04:21:00.915Z,100039.84
2022-12-11T04:23:46.268Z,100025.09
2022-12-11T04:26:16.785Z,100034.78
2022-12-11T04:28:44.304Z,100028.31
2022-12-11T04:31:13.036Z,100028.34
2022-12-11T04:33:39.643Z,100031.25
2022-12-11T04:36:06.501Z,100033.25
2022-12-11T04:38:33.070Z,100040.59
2022-12-11T04:41:01.738Z,100045.63
2022-12-11T04:43:28.643Z,100037.03
2022-12-11T04:46:06.191Z,100034.44
2022-12-11T04:48:33.285Z,100037.72
2022-12-11T04:50:59.955Z,100040.25
2022-12-11T04:53:26.874Z,100036.72
2022-12-11T04:55:53.992Z,100034.91
2022-12-11T04:58:20.570Z,100031.09
2022-12-11T05:00:47.285Z,100035.91
2022-12-11T05:03:14.048Z,100038.63
2022-12-11T05:05:40.632Z,100030.25
2022-12-11T05:08:08.226Z,100037.34
2022-12-11T05:10:34.809Z,100036.09
2022-12-11T05:13:01.441Z,100037.53
2022-12-11T05:15:27.944Z,100021.63
2022-12-11T05:17:54.443Z,100018.69
2022-12-11T05:20:20.986Z,100011.44
2022-12-11T05:22:47.489Z,100007.13
2022-12-11T05:25:14.192Z,100007.53
2022-12-11T05:27:40.818Z,100016.72
2022-12-11T05:30:10.337Z,100014.00
2022-12-11T05:32:36.896Z,100017.38
2022-12-11T05:35:03.702Z,100013.94
2022-12-11T05:37:30.205Z,100021.44
2022-12-11T05:39:56.738Z,100014.50
2022-12-11T05:42:28.578Z,100016.41
2022-12-11T05:44:55.520Z,100014.38
2022-12-11T05:47:22.019Z,99995.94
2022-12-11T05:49:48.538Z,100017.69
2022-12-11T05:52:16.609Z,100017.41
2022-12-11T05:54:43.357Z,100014.63
2022-12-11T05:57:09.880Z,100008.53
2022-12-11T05:59:36.447Z,100012.25
2022-12-11T06:02:03.090Z,100011.97
2022-12-11T06:04:29.667Z,100004.47
2022-12-11T06:06:56.240Z,99987.78
2022-12-11T06:09:22.757Z,99992.63
2022-12-11T06:11:49.223Z,99992.31
2022-12-11T06:14:15.662Z,99989.06
2022-12-11T06:16:42.317Z,99979.19
2022-12-11T06:19:18.272Z,99987.28
2022-12-11T06:21:45.559Z,99981.72
2022-12-11T06:24:12.116Z,99991.41
2022-12-11T06:26:38.705Z,99973.78
2022-12-11T06:29:08.974Z,99996.09
2022-12-11T06:31:38.996Z,100000.47
2022-12-11T06:34:05.993Z,99995.06
2022-12-11T06:36:32.515Z,99990.78
2022-12-11T06:38:59.108Z,99992.94
2022-12-11T06:41:25.818Z,99989.16
2022-12-11T06:43:52.479Z,99981.63
2022-12-11T06:46:20.135Z,99980.34
2022-12-11T06:48:48.467Z,99984.22
2022-12-11T06:51:18.129Z,99982.66
2022-12-11T06:53:45.053Z,99985.94
2022-12-11T06:56:15.101Z,99988.66
2022-12-11T06:58:43.043Z,99981.88
2022-12-11T07:01:19.465Z,99982.09
2022-12-11T07:03:46.581Z,99964.38
2022-12-11T07:06:13.932Z,99980.72
2022-12-11T07:08:40.743Z,99993.22
2022-12-11T07:11:10.681Z,99991.22
2022-12-11T07:13:37.410Z,99995.91
2022-12-11T07:16:10.392Z,99995.44
2022-12-11T07:18:41.670Z,99991.47
2022-12-11T07:21:11.707Z,99991.38
2022-12-11T07:23:38.469Z,100000.00
2022-12-11T07:26:10.659Z,100001.16
2022-12-11T07:28:37.598Z,100001.38
2022-12-11T07:31:15.841Z,99998.03
2022-12-11T07:33:42.893Z,99997.19
2022-12-11T07:36:11.058Z,100005.88
2022-12-11T07:38:38.305Z,100000.69
2022-12-11T07:41:07.481Z,100011.91
2022-12-11T07:43:35.228Z,100006.09
2022-12-11T07:46:04.632Z,100005.13
2022-12-11T07:48:31.626Z,100006.31
2022-12-11T07:51:18.084Z,100009.75
2022-12-11T07:53:46.916Z,100014.72
2022-12-11T07:56:14.157Z,100011.72
2022-12-11T07:58:40.663Z,100010.38
2022-12-11T08:01:15.995Z,100015.84
2022-12-11T08:03:43.178Z,100015.69
2022-12-11T08:06:10.322Z,100027.38
2022-12-11T08:08:37.876Z,100025.94
2022-12-11T08:11:06.536Z,100019.41
2022-12-11T08:13:33.401Z,100024.63
2022-12-11T08:16:04.377Z,100018.47
2022-12-11T08:18:30.859Z,100014.66
2022-12-11T08:20:57.405Z,100004.53
2022-12-11T08:23:23.972Z,100020.13
2022-12-11T08:25:50.474Z,100013.25
2022-12-11T08:28:17.029Z,100011.63
2022-12-11T08:30:43.629Z,100013.19
2022-12-11T08:33:10.141Z,100018.88
2022-12-11T08:35:39.754Z,100009.56
2022-12-11T08:38:06.232Z,100010.19
2022-12-11T08:40:32.860Z,100000.88
2022-12-11T08:42:59.427Z,100008.13
2022-12-11T08:45:26.971Z,100003.41
2022-12-11T08:47:53.966Z,100000.00
2022-12-11T08:50:20.576Z,100009.69
2022-12-11T08:52:47.233Z,100013.94
2022-12-11T08:55:14.045Z,100017.78
2022-12-11T08:57:40.678Z,100012.97
2022-12-11T09:00:09.223Z,100017.09
2022-12-11T09:02:35.854Z,100015.94
2022-12-11T09:05:02.635Z,100020.78
2022-12-11T09:07:29.229Z,100022.75
2022-12-11T09:09:55.762Z,100013.09
2022-12-11T09:12:23.043Z,100015.78
2022-12-11T09:14:49.645Z,100010.50
2022-12-11T09:17:16.189Z,100014.94
2022-12-11T09:19:42.867Z,100011.72
2022-12-11T09:22:11.163Z,100004.53
2022-12-11T09:24:38.528Z,100009.59
2022-12-11T09:27:05.893Z,100024.19
2022-12-11T09:29:32.936Z,100023.16
2022-12-11T09:31:59.507Z,100020.53
2022-12-11T09:34:29.391Z,100027.09
2022-12-11T09:36:56.801Z,100020.00
2022-12-11T09:39:23.332Z,100016.75
2022-12-11T09:42:32.849Z,100009.22
2022-12-11T09:45:03.103Z,100017.88
2022-12-11T09:47:33.923Z,100005.84
2022-12-11T09:50:15.680Z,100005.84
2022-12-11T09:52:55.821Z,100012.66
2022-12-11T09:55:24.545Z,100008.63
2022-12-11T09:58:05.207Z,100010.63
2022-12-11T10:00:39.774Z,100006.84
2022-12-11T10:03:25.519Z,99996.00
2022-12-11T10:06:01.043Z,99993.50
2022-12-11T10:08:36.168Z,99999.50
2022-12-11T10:11:22.694Z,99997.16
2022-12-11T10:14:02.629Z,99995.78
2022-12-11T10:16:47.043Z,99998.34
2022-12-11T10:19:20.350Z,99999.50
2022-12-11T10:21:47.872Z,100004.66
2022-12-11T10:25:09.301Z,100003.34
2022-12-11T10:27:31.058Z,100003.91
2022-12-11T10:30:12.984Z,100005.91
2022-12-11T10:33:10.034Z,99999.47
2022-12-11T10:35:43.513Z,100003.66
2022-12-11T10:38:21.634Z,99999.22
2022-12-11T10:40:55.021Z,100002.31
2022-12-11T10:43:32.633Z,99990.00
2022-12-11T10:45:59.241Z,99994.56
2022-12-11T10:48:25.792Z,99985.16
2022-12-11T10:51:01.501Z,99975.47
2022-12-11T10:53:29.168Z,99977.75
2022-12-11T10:55:58.417Z,99975.25
2022-12-11T10:58:28.439Z,99981.31
2022-12-11T11:01:16.284Z,99975.34
2022-12-11T11:03:58.783Z,99968.16
2022-12-11T11:06:26.817Z,99963.72
2022-12-11T11:08:58.317Z,99957.91
2022-12-11T11:11:28.614Z,99952.00
2022-12-11T11:14:07.518Z,99947.59
2022-12-11T11:16:37.519Z,99956.47
2022-12-11T11:19:04.842Z,99955.31
2022-12-11T11:21:32.852Z,99954.84
2022-12-11T11:23:59.762Z,99946.53
2022-12-11T11:26:38.408Z,99949.06
2022-12-11T11:29:25.891Z,99939.75
2022-12-11T11:31:52.516Z,99942.41
2022-12-11T11:34:22.179Z,99931.91
2022-12-11T11:36:57.736Z,99941.09
2022-12-11T11:39:45.077Z,99934.69
2022-12-11T11:42:36.472Z,99930.41
2022-12-11T11:45:10.808Z,99924.97
2022-12-11T11:47:43.075Z,99935.44
2022-12-11T11:50:20.100Z,99925.91
2022-12-11T11:52:55.635Z,99931.22
2022-12-11T11:55:37.880Z,99932.41
2022-12-11T11:58:14.079Z,99935.66
2022-12-11T12:00:40.992Z,99920.63
2022-12-11T12:03:16.870Z,99919.81
2022-12-11T12:05:52.369Z,99920.94
2022-12-11T12:08:55.756Z,99914.94
2022-12-11T12:11:40.672Z,99910.47
2022-12-11T12:14:43.558Z,99907.22
2022-12-11T12:17:21.436Z,99915.44
2022-12-11T12:20:00.192Z,99914.94
2022-12-11T12:22:40.180Z,99903.44
2022-12-11T12:25:15.349Z,99902.94
2022-12-11T12:28:31.418Z,99907.03
2022-12-11T12:31:20.229Z,99911.03
2022-12-11T12:34:02.067Z,99915.88
2022-12-11T12:37:02.443Z,99913.38
2022-12-11T12:39:38.059Z,99916.81
2022-12-11T12:42:35.112Z,99917.22
2022-12-11T12:45:16.166Z,99921.63
2022-12-11T12:47:51.774Z,99918.22
2022-12-11T12:50:26.211Z,99919.44
2022-12-11T12:52:55.073Z,99906.28
2022-12-11T12:55:24.940Z,99909.06
2022-12-11T12:58:00.397Z,99907.59
2022-12-11T13:00:42.173Z,99902.91
2022-12-11T13:03:14.647Z,99905.22
2022-12-11T13:05:44.518Z,99903.53
2022-12-11T13:08:12.961Z,99904.13
2022-12-11T13:10:43.076Z,99909.22
2022-12-11T13:13:33.621Z,99912.97
2022-12-11T13:16:25.623Z,99904.53
2022-12-11T13:18:52.948Z,99904.38
2022-12-11T13:21:34.727Z,99908.75
2022-12-11T13:24:23.880Z,99909.22
2022-12-11T13:26:51.581Z,99908.47
2022-12-11T13:29:38.408Z,99903.97
2022-12-11T13:32:07.927Z,99901.97
2022-12-11T13:34:37.707Z,99906.16
2022-12-11T13:37:06.048Z,99906.63
2022-12-11T13:39:35.339Z,99905.50
2022-12-11T13:42:07.560Z,99903.84
2022-12-11T13:44:39.457Z,99911.13
2022-12-11T13:47:10.800Z,99906.63
2022-12-11T13:49:42.147Z,99908.38
2022-12-11T13:52:17.541Z,99907.84
2022-12-11T13:54:53.873Z,99909.56
2022-12-11T13:57:23.538Z,99907.19
2022-12-11T13:59:53.175Z,99900.28
2022-12-11T14:02:19.678Z,99912.47
2022-12-11T14:04:49.464Z,99899.69
2022-12-11T14:07:23.625Z,99911.28
2022-12-11T14:09:50.815Z,99910.09
2022-12-11T14:12:20.841Z,99908.56
2022-12-11T14:14:51.479Z,99913.97
2022-12-11T14:17:25.603Z,99924.28
2022-12-11T14:19:54.534Z,99912.25
2022-12-11T14:22:23.863Z,99916.28
2022-12-11T14:24:53.154Z,99918.59
2022-12-11T14:27:20.465Z,99911.47
2022-12-11T14:29:47.988Z,99918.91
2022-12-11T14:32:30.300Z,99915.00
2022-12-11T14:34:57.921Z,99905.41
2022-12-11T14:37:25.520Z,99921.66
2022-12-11T14:39:57.717Z,99917.06
2022-12-11T14:42:29.857Z,99920.44
2022-12-11T14:45:03.618Z,99914.44
2022-12-11T14:47:39.769Z,99921.41
2022-12-11T14:50:11.750Z,99928.94
2022-12-11T14:52:42.770Z,99928.50
2022-12-11T14:55:19.685Z,99927.41
2022-12-11T14:57:49.897Z,99922.47
2022-12-11T15:00:28.796Z,99928.50
2022-12-11T15:03:00.910Z,99928.03
2022-12-11T15:05:28.438Z,99931.69
2022-12-11T15:07:55.020Z,99933.75
2022-12-11T15:11:00.355Z,99929.09
2022-12-11T15:13:27.538Z,99921.00
2022-12-11T15:15:55.581Z,99932.56
2022-12-11T15:18:35.678Z,99927.34
2022-12-11T15:21:09.823Z,99930.78
2022-12-11T15:23:45.619Z,99944.16
2022-12-11T15:26:12.390Z,99943.13
2022-12-11T15:28:39.684Z,99940.03
2022-12-11T15:31:30.837Z,99942.25
2022-12-11T15:33:57.445Z,99940.88
2022-12-11T15:36:35.089Z,99947.16
2022-12-11T15:39:03.525Z,99938.84
2022-12-11T15:41:33.279Z,99954.88
2022-12-11T15:44:02.721Z,99947.31
2022-12-11T15:46:30.212Z,99944.97
2022-12-11T15:48:57.633Z,99950.28
2022-12-11T15:51:25.280Z,99953.50
2022-12-11T15:53:51.813Z,99949.25
2022-12-11T15:56:18.357Z,99959.38
2022-12-11T15:58:46.536Z,99947.66
2022-12-11T16:01:13.094Z,99955.38
2022-12-11T16:03:39.684Z,99961.22
2022-12-11T16:06:06.622Z,99951.44
2022-12-11T16:08:33.337Z,99962.09
2022-12-11T16:11:00.004Z,99963.13
2022-12-11T16:13:26.577Z,99967.69
2022-12-11T16:15:54.122Z,99960.22
2022-12-11T16:18:23.093Z,99957.31
2022-12-11T16:20:50.933Z,99958.59
2022-12-11T16:23:17.800Z,99955.41
2022-12-11T16:25:45.805Z,99942.16
2022-12-11T16:28:15.448Z,99959.00
2022-12-11T16:30:43.403Z,99953.34
2022-12-11T16:33:13.238Z,99952.09
2022-12-11T16:35:41.960Z,99954.16
2022-12-11T16:38:10.081Z,99940.88
2022-12-11T16:40:37.424Z,99952.03
2022-12-11T16:43:07.533Z,99945.69
2022-12-11T16:45:34.166Z,99957.91
2022-12-11T16:48:04.809Z,99955.22
2022-12-11T16:50:32.515Z,99946.69
2022-12-11T16:52:59.332Z,99953.13
2022-12-11T16:55:26.291Z,99943.66
2022-12-11T16:57:53.078Z,99949.31
2022-12-11T17:00:20.472Z,99950.75
2022-12-11T17:02:47.056Z,99939.53
2022-12-11T17:05:13.877Z,99955.56
2022-12-11T17:07:40.727Z,99931.97
2022-12-11T17:10:08.117Z,99942.16
2022-12-11T17:12:35.099Z,99936.00
2022-12-11T17:15:01.752Z,99942.31
2022-12-11T17:17:28.417Z,99938.50
2022-12-11T17:19:55.348Z,99930.16
2022-12-11T17:22:22.597Z,99930.03
2022-12-11T17:24:49.543Z,99927.97
2022-12-11T17:27:16.296Z,99935.22
2022-12-11T17:29:47.275Z,99938.44
2022-12-11T17:32:13.906Z,99942.13
2022-12-11T17:34:40.428Z,99942.94
2022-12-11T17:37:07.867Z,99942.84
2022-12-11T17:39:34.458Z,99914.81
2022-12-11T17:42:01.069Z,99939.63
2022-12-11T17:44:30.435Z,99933.81
2022-12-11T17:46:59.862Z,99927.72
2022-12-11T17:49:26.808Z,99935.06
2022-12-11T17:51:55.308Z,99933.28
2022-12-11T17:54:23.400Z,99933.59
2022-12-11T17:56:50.404Z,99921.19
2022-12-11T17:59:17.392Z,99917.00
2022-12-11T18:01:43.897Z,99927.69
2022-12-11T18:04:10.507Z,99930.25
2022-12-11T18:06:37.280Z,99926.53
2022-12-11T18:09:04.475Z,99933.69
2022-12-11T18:11:31.320Z,99927.44
2022-12-11T18:13:58.003Z,99925.00
2022-12-11T18:16:31.396Z,99929.69
2022-12-11T18:18:58.128Z,99936.22
2022-12-11T18:21:28.741Z,99936.66
2022-12-11T18:23:55.580Z,99932.41
2022-12-11T18:26:22.894Z,99925.59
2022-12-11T18:28:50.828Z,99927.16
2022-12-11T18:31:18.846Z,99927.63
2022-12-11T18:33:45.890Z,99926.47
2022-12-11T18:36:15.007Z,99920.72
2022-12-11T18:38:42.384Z,99925.34
2022-12-11T18:41:11.677Z,99926.03
2022-12-11T18:43:38.251Z,99928.28
2022-12-11T18:46:09.585Z,99937.22
2022-12-11T18:48:36.524Z,99936.88
2022-12-11T18:51:10.837Z,99942.13
2022-12-11T18:53:39.269Z,99938.84
2022-12-11T18:56:10.869Z,99934.88
2022-12-11T18:58:38.088Z,99940.25
2022-12-11T19:01:10.632Z,99944.59
2022-12-11T19:03:37.980Z,99938.69
2022-12-11T19:06:13.733Z,99934.03
2022-12-11T19:08:40.771Z,99941.59
2022-12-11T19:11:07.711Z,99927.19
2022-12-11T19:13:35.204Z,99939.97
2022-12-11T19:16:02.318Z,99935.69
2022-12-11T19:18:28.928Z,99903.00
2022-12-11T19:21:04.974Z,99929.50
2022-12-11T19:23:35.248Z,99924.22
2022-12-11T19:26:02.342Z,99917.13
2022-12-11T19:28:30.277Z,99927.78
2022-12-11T19:30:56.852Z,99923.41
2022-12-11T19:33:23.393Z,99921.81
2022-12-11T19:35:49.949Z,99929.13
2022-12-11T19:38:16.604Z,99917.88
2022-12-11T19:40:44.534Z,99919.56
2022-12-11T19:43:11.328Z,99930.88
2022-12-11T19:45:38.263Z,99919.06
2022-12-11T19:48:05.702Z,99924.50
2022-12-11T19:50:36.297Z,99923.34
2022-12-11T19:53:03.416Z,99935.88
2022-12-11T19:55:30.088Z,99931.81
2022-12-11T19:57:56.848Z,99927.94
2022-12-11T20:00:24.514Z,99930.22
2022-12-11T20:02:51.682Z,99928.91
2022-12-11T20:05:18.352Z,99922.84
2022-12-11T20:07:45.371Z,99927.72
2022-12-11T20:10:12.207Z,99932.47
2022-12-11T20:12:39.581Z,99925.97
2022-12-11T20:15:06.582Z,99931.41
2022-12-11T20:17:33.465Z,99924.69
2022-12-11T20:20:00.245Z,99925.56
2022-12-11T20:22:26.782Z,99916.84
2022-12-11T20:24:53.414Z,99929.16
2022-12-11T20:27:20.448Z,99927.59
2022-12-11T20:29:49.990Z,99933.34
2022-12-11T20:32:16.563Z,99933.59
2022-12-11T20:34:43.136Z,99930.44
2022-12-11T20:37:09.974Z,99932.34
2022-12-11T20:39:36.782Z,99922.72
2022-12-11T20:42:04.839Z,99926.06
2022-12-11T20:44:32.063Z,99920.22
2022-12-11T20:46:58.671Z,99934.22
2022-12-11T20:49:25.403Z,99928.97
2022-12-11T20:51:52.024Z,99921.22
2022-12-11T20:54:18.637Z,99925.28
2022-12-11T20:56:45.132Z,99923.50
2022-12-11T20:59:14.094Z,99929.66
2022-12-11T21:01:40.831Z,99924.88
2022-12-11T21:04:07.657Z,99922.53
2022-12-11T21:06:36.261Z,99925.09
2022-12-11T21:09:29.436Z,99926.16
2022-12-11T21:11:58.345Z,99922.34
2022-12-11T21:14:24.857Z,99925.09
2022-12-11T21:16:51.453Z,99919.25
2022-12-11T21:19:20.323Z,99925.22
2022-12-11T21:21:47.198Z,99918.34
2022-12-11T21:24:26.532Z,99921.59
2022-12-11T21:26:55.524Z,99900.13
2022-12-11T21:29:23.533Z,99923.25
2022-12-11T21:31:51.206Z,99923.28
2022-12-11T21:34:23.651Z,99913.22
2022-12-11T21:36:56.398Z,99908.28
2022-12-11T21:39:26.878Z,99926.09
2022-12-11T21:41:53.407Z,99924.31
2022-12-11T21:47:06.502Z,99925.19
2022-12-11T21:49:33.149Z,99926.94
2022-12-11T21:51:59.756Z,99927.19
2022-12-11T21:54:26.311Z,99922.09
2022-12-11T21:56:54.118Z,99924.69
2022-12-11T21:59:20.719Z,99922.19
2022-12-11T22:01:47.301Z,99928.88
2022-12-11T22:04:14.960Z,99929.56
2022-12-11T22:06:43.285Z,99917.69
2022-12-11T22:09:12.433Z,99925.59
2022-12-11T22:11:40.416Z,99920.34
2022-12-11T22:14:07.427Z,99920.72
2022-12-11T22:16:35.305Z,99923.41
2022-12-11T22:19:01.975Z,99912.63
2022-12-11T22:21:29.029Z,99917.34
2022-12-11T22:23:56.225Z,99917.53
2022-12-11T22:26:26.094Z,99924.34
2022-12-11T22:28:52.984Z,99929.34
2022-12-11T22:31:22.052Z,99932.69
2022-12-11T22:33:49.991Z,99934.34
2022-12-11T22:36:18.605Z,99933.97
2022-12-11T22:38:45.648Z,99925.34
2022-12-11T22:41:20.559Z,99935.28
2022-12-11T22:43:48.812Z,99933.25
2022-12-11T22:46:16.992Z,99925.59
2022-12-11T22:48:43.725Z,99941.63
2022-12-11T22:51:10.889Z,99939.44
2022-12-11T22:53:37.554Z,99940.28
2022-12-11T22:56:05.908Z,99930.53
2022-12-11T22:58:32.833Z,99942.53
2022-12-11T23:01:01.376Z,99942.59
2022-12-11T23:03:28.195Z,99936.06
2022-12-11T23:05:55.034Z,99948.25
2022-12-11T23:08:21.648Z,99938.66
2022-12-11T23:10:48.564Z,99939.16
2022-12-11T23:13:15.188Z,99947.72
2022-12-11T23:15:41.664Z,99942.22
2022-12-11T23:18:08.258Z,99948.25
2022-12-11T23:20:34.994Z,99940.09
2022-12-11T23:23:01.863Z,99939.09
2022-12-11T23:25:28.344Z,99948.81
2022-12-11T23:27:55.236Z,99947.59
2022-12-11T23:30:21.900Z,99944.91
2022-12-11T23:32:48.365Z,99946.53
2022-12-11T23:35:15.044Z,99942.72
2022-12-11T23:37:41.883Z,99946.34
2022-12-11T23:40:09.395Z,99949.63
2022-12-11T23:42:35.951Z,99954.69
2022-12-11T23:45:02.478Z,99955.03
2022-12-11T23:47:29.032Z,99947.00
2022-12-11T23:49:55.546Z,99954.72
2022-12-11T23:52:22.975Z,99957.38
2022-12-11T23:54:49.672Z,99956.81
2022-12-11T23:57:16.239Z,99954.66
2022-12-11T23:59:42.781Z,99952.47
